Archival Weather

Chicago O'Hare International

Chicago, Illinois (KORD)

Report from: Sunday, March 6, 2022 5:51 AM CST
Current time: Saturday, February 4, 2023 10:55 PM CST

Current weather
Weather history
Weather forecast

Temperature3.3°C (37.9°F)
Wind chill-3.1°C (26.3°F)
Dew point-1.1°C (30.0°F)
Winds 23 kts (11.8 m/s, 26.5 mph) West-Southwest (240°)
Wind gusts 39 kts (20.1 m/s, 44.9 mph)
Peak wind 43 kts (22.1 m/s, 49.5 mph) West-Southwest (250°) at 04:53
Visibility10 mi. (16.1 km)
Clouds Ceiling: Overcast 2,100 ft. (640 m)
Altimeter29.80 in.Hg (1009 mB)
Precip last 3 hours0.01 in. (0 mm)
Precip last 24 hours0.12 in. (3 mm)
Relative humidity73 %
Density altitude-1,193 ft. (-364 m)
Sea-level pressure100.9 kPa (1009 mB, 29.80 in.Hg)
Max temp last 6 hours15.0°C (59.0°F)
Min temp last 6 hours3.3°C (37.9°F)
Remarks System requires maintenance
Automated weather observing station with precipitation discriminator
Pressure rising more slowly
Flight conditions Marginal Visual Meteorological Conditions
Raw dataKORD 061151Z 24023G39KT 10SM OVC021 03/M01 A2980 RMK AO2 PK WND 25043/1053 SLP093 60001 70012 T00331011 10150 20033 51054 $
An unhandled exception has occurred. See browser dev tools for details. Reload 🗙